[2025-03-07 00:00:00, 2025-03-07 23:59:59] previous next
| time | temperature | air pressure | humidity | solar radiation | wind speed |
|---|---|---|---|---|---|
| 2025-03-07 07:04:36 | 9.2 | 1008.3 | 74.0 | 21.1 | 0.0 |
| 2025-03-07 07:24:38 | 11.2 | 1008.3 | 68.0 | 26.6 | 0.8 |
| 2025-03-07 07:44:36 | 12.3 | 1008.7 | 65.0 | 31.0 | 0.4 |
| 2025-03-07 08:04:37 | 13.2 | 1008.7 | 63.0 | 34.9 | 2.9 |
| 2025-03-07 08:24:36 | 14.2 | 1008.7 | 61.0 | 36.9 | 0.4 |
| 2025-03-07 08:44:36 | 15.2 | 1009.0 | 59.0 | 42.5 | 2.4 |
| 2025-03-07 09:04:37 | 15.5 | 1009.0 | 58.0 | 49.5 | 0.8 |
| 2025-03-07 09:24:37 | 15.9 | 1009.0 | 56.0 | 67.2 | 2.0 |
| 2025-03-07 09:44:37 | 16.8 | 1009.0 | 56.0 | 68.2 | 1.1 |
| 2025-03-07 10:04:36 | 17.0 | 1009.0 | 56.0 | 107.9 | 2.2 |
| 2025-03-07 10:24:37 | 18.1 | 1009.0 | 55.0 | 61.6 | 1.3 |
| 2025-03-07 10:44:37 | 18.0 | 1009.0 | 55.0 | 174.1 | 1.3 |
| 2025-03-07 11:04:37 | 17.9 | 1009.0 | 54.0 | 206.7 | 3.2 |
| 2025-03-07 11:24:36 | 19.0 | 1009.0 | 52.0 | 271.3 | 2.7 |
| 2025-03-07 11:44:36 | 19.1 | 1008.3 | 53.0 | 277.2 | 3.2 |
| 2025-03-07 12:04:37 | 19.0 | 1008.3 | 51.0 | 315.2 | 2.9 |
| 2025-03-07 12:24:37 | 19.1 | 1008.0 | 50.0 | 296.2 | 2.9 |
| 2025-03-07 12:44:36 | 19.2 | 1008.0 | 49.0 | 272.6 | 2.5 |
| 2025-03-07 13:04:37 | 20.5 | 1008.0 | 45.0 | 326.4 | 6.0 |
| 2025-03-07 13:24:37 | 21.0 | 1007.7 | 45.0 | 300.4 | 2.4 |
| 2025-03-07 13:44:37 | 21.1 | 1007.7 | 42.0 | 301.9 | 1.1 |
| 2025-03-07 14:04:36 | 20.8 | 1007.3 | 39.0 | 292.9 | 2.2 |
| 2025-03-07 14:24:37 | 21.8 | 1007.3 | 38.0 | 328.8 | 1.3 |
| 2025-03-07 14:44:36 | 21.1 | 1007.0 | 37.0 | 296.7 | 1.5 |
| 2025-03-07 15:04:36 | 21.2 | 1007.0 | 36.0 | 268.0 | 2.0 |
| 2025-03-07 15:24:35 | 20.0 | 1006.6 | 39.0 | 229.4 | 2.0 |
| 2025-03-07 15:44:37 | 20.2 | 1006.6 | 36.0 | 197.3 | 1.1 |
| 2025-03-07 16:04:36 | 20.0 | 1006.6 | 36.0 | 189.1 | 3.1 |
CSV export: /station/IWELLEN5/data?period=20250307T000000/20250307T235959&format=csv&tz=GMT